sensor_id;sensor_type;location;lat;lon;timestamp;P1;durP1;ratioP1;P2;durP2;ratioP2
66607;SDS011;53462;39.616;8.824;2024-01-30T00:01:51;6.90;;;3.70;;
66607;SDS011;53462;39.616;8.824;2024-01-30T00:04:18;8.43;;;3.80;;
66607;SDS011;53462;39.616;8.824;2024-01-30T00:06:44;7.18;;;3.47;;
66607;SDS011;53462;39.616;8.824;2024-01-30T00:09:10;6.00;;;3.33;;
66607;SDS011;53462;39.616;8.824;2024-01-30T00:11:37;6.75;;;3.35;;
66607;SDS011;53462;39.616;8.824;2024-01-30T00:14:03;7.03;;;3.22;;
66607;SDS011;53462;39.616;8.824;2024-01-30T00:16:29;7.72;;;3.35;;
66607;SDS011;53462;39.616;8.824;2024-01-30T00:18:56;5.32;;;3.20;;
66607;SDS011;53462;39.616;8.824;2024-01-30T00:21:22;5.10;;;3.10;;
66607;SDS011;53462;39.616;8.824;2024-01-30T00:23:49;4.68;;;2.80;;
66607;SDS011;53462;39.616;8.824;2024-01-30T00:26:15;6.78;;;3.20;;
66607;SDS011;53462;39.616;8.824;2024-01-30T00:28:41;5.20;;;3.15;;
66607;SDS011;53462;39.616;8.824;2024-01-30T00:31:09;4.35;;;2.97;;
66607;SDS011;53462;39.616;8.824;2024-01-30T00:33:38;7.03;;;2.78;;
66607;SDS011;53462;39.616;8.824;2024-01-30T00:36:05;6.45;;;3.03;;
66607;SDS011;53462;39.616;8.824;2024-01-30T00:38:34;4.30;;;2.67;;
66607;SDS011;53462;39.616;8.824;2024-01-30T00:41:01;7.32;;;2.72;;
66607;SDS011;53462;39.616;8.824;2024-01-30T00:43:28;7.93;;;2.90;;
66607;SDS011;53462;39.616;8.824;2024-01-30T00:45:54;5.93;;;2.90;;
66607;SDS011;53462;39.616;8.824;2024-01-30T00:48:20;4.85;;;2.55;;
66607;SDS011;53462;39.616;8.824;2024-01-30T00:50:46;4.18;;;2.88;;
66607;SDS011;53462;39.616;8.824;2024-01-30T00:53:12;6.70;;;3.63;;
66607;SDS011;53462;39.616;8.824;2024-01-30T00:55:38;10.88;;;5.82;;
66607;SDS011;53462;39.616;8.824;2024-01-30T00:58:04;8.65;;;4.75;;
66607;SDS011;53462;39.616;8.824;2024-01-30T01:00:30;5.38;;;3.55;;
66607;SDS011;53462;39.616;8.824;2024-01-30T01:03:00;6.03;;;3.00;;
66607;SDS011;53462;39.616;8.824;2024-01-30T01:05:26;4.97;;;2.60;;
66607;SDS011;53462;39.616;8.824;2024-01-30T01:07:52;4.03;;;2.70;;
66607;SDS011;53462;39.616;8.824;2024-01-30T01:10:18;4.18;;;3.08;;
66607;SDS011;53462;39.616;8.824;2024-01-30T01:12:45;6.05;;;2.97;;
66607;SDS011;53462;39.616;8.824;2024-01-30T01:15:11;5.40;;;2.50;;
66607;SDS011;53462;39.616;8.824;2024-01-30T01:17:38;7.75;;;2.80;;
66607;SDS011;53462;39.616;8.824;2024-01-30T01:20:04;4.57;;;2.58;;
66607;SDS011;53462;39.616;8.824;2024-01-30T01:22:31;3.75;;;2.53;;
66607;SDS011;53462;39.616;8.824;2024-01-30T01:24:58;3.65;;;2.53;;
66607;SDS011;53462;39.616;8.824;2024-01-30T01:27:25;4.63;;;2.70;;
66607;SDS011;53462;39.616;8.824;2024-01-30T01:29:52;5.82;;;2.70;;
66607;SDS011;53462;39.616;8.824;2024-01-30T01:32:18;5.80;;;2.50;;
66607;SDS011;53462;39.616;8.824;2024-01-30T01:34:45;5.65;;;2.80;;
66607;SDS011;53462;39.616;8.824;2024-01-30T01:37:11;4.53;;;2.63;;
66607;SDS011;53462;39.616;8.824;2024-01-30T01:39:37;5.43;;;2.78;;
66607;SDS011;53462;39.616;8.824;2024-01-30T01:42:03;5.57;;;2.95;;
66607;SDS011;53462;39.616;8.824;2024-01-30T01:44:29;4.32;;;2.53;;
66607;SDS011;53462;39.616;8.824;2024-01-30T01:46:55;4.03;;;2.53;;
66607;SDS011;53462;39.616;8.824;2024-01-30T01:49:24;5.70;;;2.70;;
66607;SDS011;53462;39.616;8.824;2024-01-30T01:51:53;3.13;;;2.50;;
66607;SDS011;53462;39.616;8.824;2024-01-30T01:54:22;4.80;;;2.80;;
66607;SDS011;53462;39.616;8.824;2024-01-30T01:56:49;4.38;;;2.60;;
66607;SDS011;53462;39.616;8.824;2024-01-30T01:59:16;5.07;;;3.03;;
66607;SDS011;53462;39.616;8.824;2024-01-30T02:01:43;4.35;;;2.85;;
66607;SDS011;53462;39.616;8.824;2024-01-30T02:04:10;5.10;;;2.63;;
66607;SDS011;53462;39.616;8.824;2024-01-30T02:06:37;6.03;;;2.83;;
66607;SDS011;53462;39.616;8.824;2024-01-30T02:09:03;5.35;;;2.70;;
66607;SDS011;53462;39.616;8.824;2024-01-30T02:11:30;4.45;;;2.60;;
66607;SDS011;53462;39.616;8.824;2024-01-30T02:13:57;7.75;;;2.80;;
66607;SDS011;53462;39.616;8.824;2024-01-30T02:16:27;5.28;;;2.88;;
66607;SDS011;53462;39.616;8.824;2024-01-30T02:18:53;4.63;;;2.30;;
66607;SDS011;53462;39.616;8.824;2024-01-30T02:21:19;4.45;;;2.47;;
66607;SDS011;53462;39.616;8.824;2024-01-30T02:23:46;6.50;;;2.63;;
66607;SDS011;53462;39.616;8.824;2024-01-30T02:26:13;7.35;;;2.50;;
66607;SDS011;53462;39.616;8.824;2024-01-30T02:28:40;4.05;;;2.50;;
66607;SDS011;53462;39.616;8.824;2024-01-30T02:31:06;7.18;;;2.33;;
66607;SDS011;53462;39.616;8.824;2024-01-30T02:33:32;5.75;;;2.50;;
66607;SDS011;53462;39.616;8.824;2024-01-30T02:35:58;4.68;;;2.90;;
66607;SDS011;53462;39.616;8.824;2024-01-30T02:38:24;5.75;;;3.50;;
66607;SDS011;53462;39.616;8.824;2024-01-30T02:40:52;6.40;;;3.13;;
66607;SDS011;53462;39.616;8.824;2024-01-30T02:43:18;6.45;;;4.30;;
66607;SDS011;53462;39.616;8.824;2024-01-30T02:45:44;6.63;;;3.20;;
66607;SDS011;53462;39.616;8.824;2024-01-30T02:48:10;5.47;;;2.97;;
66607;SDS011;53462;39.616;8.824;2024-01-30T02:50:36;5.43;;;2.88;;
66607;SDS011;53462;39.616;8.824;2024-01-30T02:53:02;3.92;;;2.20;;
66607;SDS011;53462;39.616;8.824;2024-01-30T02:55:29;4.60;;;2.30;;
66607;SDS011;53462;39.616;8.824;2024-01-30T02:57:55;4.25;;;2.47;;
66607;SDS011;53462;39.616;8.824;2024-01-30T03:00:21;3.13;;;2.22;;
66607;SDS011;53462;39.616;8.824;2024-01-30T03:02:47;6.18;;;2.80;;
66607;SDS011;53462;39.616;8.824;2024-01-30T03:05:13;6.15;;;2.47;;
66607;SDS011;53462;39.616;8.824;2024-01-30T03:07:39;5.70;;;2.30;;
66607;SDS011;53462;39.616;8.824;2024-01-30T03:10:05;4.97;;;2.65;;
66607;SDS011;53462;39.616;8.824;2024-01-30T03:12:31;4.40;;;2.63;;
66607;SDS011;53462;39.616;8.824;2024-01-30T03:14:58;3.75;;;2.10;;
66607;SDS011;53462;39.616;8.824;2024-01-30T03:17:24;6.15;;;2.40;;
66607;SDS011;53462;39.616;8.824;2024-01-30T03:19:50;4.25;;;2.55;;
66607;SDS011;53462;39.616;8.824;2024-01-30T03:22:16;4.15;;;2.22;;
66607;SDS011;53462;39.616;8.824;2024-01-30T03:24:42;4.10;;;2.20;;
66607;SDS011;53462;39.616;8.824;2024-01-30T03:27:08;9.00;;;2.60;;
66607;SDS011;53462;39.616;8.824;2024-01-30T03:29:35;4.38;;;2.20;;
66607;SDS011;53462;39.616;8.824;2024-01-30T03:32:01;4.00;;;2.42;;
66607;SDS011;53462;39.616;8.824;2024-01-30T03:34:29;3.75;;;2.22;;
66607;SDS011;53462;39.616;8.824;2024-01-30T03:36:55;4.07;;;2.17;;
66607;SDS011;53462;39.616;8.824;2024-01-30T03:39:21;4.57;;;2.35;;
66607;SDS011;53462;39.616;8.824;2024-01-30T03:41:47;4.20;;;2.28;;
66607;SDS011;53462;39.616;8.824;2024-01-30T03:44:13;4.75;;;2.30;;
66607;SDS011;53462;39.616;8.824;2024-01-30T03:46:39;5.25;;;2.40;;
66607;SDS011;53462;39.616;8.824;2024-01-30T03:49:06;3.35;;;2.45;;
66607;SDS011;53462;39.616;8.824;2024-01-30T03:51:32;3.40;;;2.50;;
66607;SDS011;53462;39.616;8.824;2024-01-30T03:53:58;3.58;;;2.25;;
66607;SDS011;53462;39.616;8.824;2024-01-30T03:56:24;5.78;;;2.55;;
66607;SDS011;53462;39.616;8.824;2024-01-30T03:58:51;6.05;;;2.30;;
66607;SDS011;53462;39.616;8.824;2024-01-30T04:01:17;4.13;;;2.15;;
66607;SDS011;53462;39.616;8.824;2024-01-30T04:03:43;3.17;;;2.20;;
66607;SDS011;53462;39.616;8.824;2024-01-30T04:06:09;6.57;;;2.60;;
66607;SDS011;53462;39.616;8.824;2024-01-30T04:08:36;5.32;;;2.40;;
66607;SDS011;53462;39.616;8.824;2024-01-30T04:11:03;4.20;;;2.50;;
66607;SDS011;53462;39.616;8.824;2024-01-30T04:13:31;6.05;;;3.70;;
66607;SDS011;53462;39.616;8.824;2024-01-30T04:16:00;8.13;;;5.50;;
66607;SDS011;53462;39.616;8.824;2024-01-30T04:18:27;5.00;;;2.65;;
66607;SDS011;53462;39.616;8.824;2024-01-30T04:20:54;4.78;;;2.10;;
66607;SDS011;53462;39.616;8.824;2024-01-30T04:23:20;5.00;;;2.10;;
66607;SDS011;53462;39.616;8.824;2024-01-30T04:25:47;3.80;;;2.17;;
66607;SDS011;53462;39.616;8.824;2024-01-30T04:28:13;4.72;;;1.98;;
66607;SDS011;53462;39.616;8.824;2024-01-30T04:30:39;5.00;;;2.60;;
66607;SDS011;53462;39.616;8.824;2024-01-30T04:33:05;6.13;;;2.03;;
66607;SDS011;53462;39.616;8.824;2024-01-30T04:35:31;4.65;;;2.20;;
66607;SDS011;53462;39.616;8.824;2024-01-30T04:37:57;5.15;;;2.00;;
66607;SDS011;53462;39.616;8.824;2024-01-30T04:40:23;3.20;;;2.00;;
66607;SDS011;53462;39.616;8.824;2024-01-30T04:42:49;4.75;;;2.05;;
66607;SDS011;53462;39.616;8.824;2024-01-30T04:45:15;3.97;;;2.10;;
66607;SDS011;53462;39.616;8.824;2024-01-30T04:47:42;5.15;;;2.00;;
66607;SDS011;53462;39.616;8.824;2024-01-30T04:50:08;2.88;;;1.70;;
66607;SDS011;53462;39.616;8.824;2024-01-30T04:52:35;7.70;;;2.10;;
66607;SDS011;53462;39.616;8.824;2024-01-30T04:55:01;5.80;;;1.88;;
66607;SDS011;53462;39.616;8.824;2024-01-30T04:57:27;3.97;;;1.88;;
66607;SDS011;53462;39.616;8.824;2024-01-30T04:59:53;3.05;;;1.75;;
66607;SDS011;53462;39.616;8.824;2024-01-30T05:02:19;3.00;;;1.92;;
66607;SDS011;53462;39.616;8.824;2024-01-30T05:04:45;4.43;;;2.17;;
66607;SDS011;53462;39.616;8.824;2024-01-30T05:07:11;4.28;;;2.03;;
66607;SDS011;53462;39.616;8.824;2024-01-30T05:09:37;2.45;;;1.75;;
66607;SDS011;53462;39.616;8.824;2024-01-30T05:12:03;4.90;;;2.30;;
66607;SDS011;53462;39.616;8.824;2024-01-30T05:14:29;4.53;;;1.90;;
66607;SDS011;53462;39.616;8.824;2024-01-30T05:16:55;4.70;;;2.00;;
66607;SDS011;53462;39.616;8.824;2024-01-30T05:19:22;4.43;;;2.10;;
66607;SDS011;53462;39.616;8.824;2024-01-30T05:21:49;4.75;;;2.15;;
66607;SDS011;53462;39.616;8.824;2024-01-30T05:24:15;3.08;;;2.03;;
66607;SDS011;53462;39.616;8.824;2024-01-30T05:26:41;4.05;;;2.05;;
66607;SDS011;53462;39.616;8.824;2024-01-30T05:29:07;5.07;;;2.05;;
66607;SDS011;53462;39.616;8.824;2024-01-30T05:31:33;4.35;;;1.95;;
66607;SDS011;53462;39.616;8.824;2024-01-30T05:34:00;9.15;;;3.28;;
66607;SDS011;53462;39.616;8.824;2024-01-30T05:36:26;7.95;;;3.40;;
66607;SDS011;53462;39.616;8.824;2024-01-30T05:38:52;4.60;;;2.58;;
66607;SDS011;53462;39.616;8.824;2024-01-30T05:41:19;3.22;;;2.08;;
66607;SDS011;53462;39.616;8.824;2024-01-30T05:43:46;3.55;;;2.20;;
66607;SDS011;53462;39.616;8.824;2024-01-30T05:46:12;4.55;;;2.00;;
66607;SDS011;53462;39.616;8.824;2024-01-30T05:48:38;4.75;;;2.58;;
66607;SDS011;53462;39.616;8.824;2024-01-30T05:51:04;6.93;;;3.20;;
66607;SDS011;53462;39.616;8.824;2024-01-30T05:53:32;7.07;;;3.58;;
66607;SDS011;53462;39.616;8.824;2024-01-30T05:55:59;8.18;;;4.40;;
66607;SDS011;53462;39.616;8.824;2024-01-30T05:58:29;9.43;;;4.00;;
66607;SDS011;53462;39.616;8.824;2024-01-30T06:00:56;10.00;;;4.07;;
66607;SDS011;53462;39.616;8.824;2024-01-30T06:03:23;8.45;;;4.40;;
66607;SDS011;53462;39.616;8.824;2024-01-30T06:05:49;24.10;;;9.82;;
66607;SDS011;53462;39.616;8.824;2024-01-30T06:08:15;11.57;;;6.07;;
66607;SDS011;53462;39.616;8.824;2024-01-30T06:10:41;7.28;;;3.67;;
66607;SDS011;53462;39.616;8.824;2024-01-30T06:13:08;6.55;;;3.22;;
66607;SDS011;53462;39.616;8.824;2024-01-30T06:15:34;5.22;;;2.70;;
66607;SDS011;53462;39.616;8.824;2024-01-30T06:18:00;4.15;;;2.83;;
66607;SDS011;53462;39.616;8.824;2024-01-30T06:20:26;6.05;;;2.50;;
66607;SDS011;53462;39.616;8.824;2024-01-30T06:22:52;5.40;;;2.17;;
66607;SDS011;53462;39.616;8.824;2024-01-30T06:25:18;5.22;;;2.40;;
66607;SDS011;53462;39.616;8.824;2024-01-30T06:27:44;8.52;;;5.10;;
66607;SDS011;53462;39.616;8.824;2024-01-30T06:30:10;15.30;;;9.60;;
66607;SDS011;53462;39.616;8.824;2024-01-30T06:32:36;46.67;;;27.20;;
66607;SDS011;53462;39.616;8.824;2024-01-30T06:35:03;73.68;;;44.33;;
66607;SDS011;53462;39.616;8.824;2024-01-30T06:40:33;74.28;;;49.10;;
66607;SDS011;53462;39.616;8.824;2024-01-30T06:42:59;201.18;;;110.07;;
66607;SDS011;53462;39.616;8.824;2024-01-30T06:45:25;103.57;;;60.67;;
66607;SDS011;53462;39.616;8.824;2024-01-30T06:47:50;120.95;;;68.82;;
66607;SDS011;53462;39.616;8.824;2024-01-30T06:50:16;108.47;;;59.03;;
66607;SDS011;53462;39.616;8.824;2024-01-30T06:52:42;56.83;;;37.45;;
66607;SDS011;53462;39.616;8.824;2024-01-30T06:55:09;76.03;;;46.95;;
66607;SDS011;53462;39.616;8.824;2024-01-30T06:57:35;105.65;;;65.43;;
66607;SDS011;53462;39.616;8.824;2024-01-30T07:00:01;41.45;;;29.80;;
66607;SDS011;53462;39.616;8.824;2024-01-30T07:02:27;40.97;;;28.23;;
66607;SDS011;53462;39.616;8.824;2024-01-30T07:04:53;22.90;;;18.02;;
66607;SDS011;53462;39.616;8.824;2024-01-30T07:07:19;11.65;;;8.52;;
66607;SDS011;53462;39.616;8.824;2024-01-30T07:09:45;13.63;;;10.15;;
66607;SDS011;53462;39.616;8.824;2024-01-30T07:12:12;17.05;;;12.27;;
66607;SDS011;53462;39.616;8.824;2024-01-30T07:14:38;13.55;;;10.05;;
66607;SDS011;53462;39.616;8.824;2024-01-30T07:17:04;19.73;;;12.75;;
66607;SDS011;53462;39.616;8.824;2024-01-30T07:19:31;29.73;;;20.02;;
66607;SDS011;53462;39.616;8.824;2024-01-30T07:21:57;15.82;;;11.10;;
66607;SDS011;53462;39.616;8.824;2024-01-30T07:24:23;24.20;;;13.75;;
66607;SDS011;53462;39.616;8.824;2024-01-30T07:26:49;17.85;;;10.27;;
66607;SDS011;53462;39.616;8.824;2024-01-30T07:29:15;20.40;;;14.32;;
66607;SDS011;53462;39.616;8.824;2024-01-30T07:31:41;24.75;;;15.68;;
66607;SDS011;53462;39.616;8.824;2024-01-30T07:34:07;12.82;;;8.05;;
66607;SDS011;53462;39.616;8.824;2024-01-30T07:36:34;20.73;;;13.63;;
66607;SDS011;53462;39.616;8.824;2024-01-30T07:39:00;25.42;;;12.60;;
66607;SDS011;53462;39.616;8.824;2024-01-30T07:41:26;33.55;;;16.95;;
66607;SDS011;53462;39.616;8.824;2024-01-30T07:43:52;36.13;;;18.48;;
66607;SDS011;53462;39.616;8.824;2024-01-30T07:46:18;11.80;;;7.80;;
66607;SDS011;53462;39.616;8.824;2024-01-30T07:48:44;43.80;;;26.67;;
66607;SDS011;53462;39.616;8.824;2024-01-30T07:51:10;51.83;;;30.17;;
66607;SDS011;53462;39.616;8.824;2024-01-30T07:53:36;38.83;;;19.70;;
66607;SDS011;53462;39.616;8.824;2024-01-30T07:56:02;17.85;;;9.35;;
66607;SDS011;53462;39.616;8.824;2024-01-30T07:58:29;8.13;;;3.97;;
66607;SDS011;53462;39.616;8.824;2024-01-30T08:00:55;10.70;;;6.22;;
66607;SDS011;53462;39.616;8.824;2024-01-30T08:03:26;13.15;;;7.45;;
66607;SDS011;53462;39.616;8.824;2024-01-30T08:05:52;6.47;;;3.45;;
66607;SDS011;53462;39.616;8.824;2024-01-30T08:08:18;5.00;;;2.75;;
66607;SDS011;53462;39.616;8.824;2024-01-30T08:10:44;7.70;;;3.10;;
66607;SDS011;53462;39.616;8.824;2024-01-30T08:13:10;7.70;;;3.92;;
66607;SDS011;53462;39.616;8.824;2024-01-30T08:15:36;6.30;;;2.75;;
66607;SDS011;53462;39.616;8.824;2024-01-30T08:18:03;6.43;;;3.47;;
66607;SDS011;53462;39.616;8.824;2024-01-30T08:20:30;4.57;;;2.70;;
66607;SDS011;53462;39.616;8.824;2024-01-30T08:22:56;4.03;;;2.72;;
66607;SDS011;53462;39.616;8.824;2024-01-30T08:25:22;7.53;;;5.10;;
66607;SDS011;53462;39.616;8.824;2024-01-30T08:27:48;9.80;;;6.43;;
66607;SDS011;53462;39.616;8.824;2024-01-30T08:30:14;11.13;;;6.38;;
66607;SDS011;53462;39.616;8.824;2024-01-30T08:32:40;5.93;;;3.17;;
66607;SDS011;53462;39.616;8.824;2024-01-30T08:35:06;4.43;;;2.58;;
66607;SDS011;53462;39.616;8.824;2024-01-30T08:37:33;8.65;;;3.83;;
66607;SDS011;53462;39.616;8.824;2024-01-30T08:40:00;5.03;;;2.70;;
66607;SDS011;53462;39.616;8.824;2024-01-30T08:42:27;4.90;;;2.83;;
66607;SDS011;53462;39.616;8.824;2024-01-30T08:44:53;5.10;;;2.90;;
66607;SDS011;53462;39.616;8.824;2024-01-30T08:47:20;4.20;;;2.50;;
66607;SDS011;53462;39.616;8.824;2024-01-30T08:49:46;4.53;;;2.45;;
66607;SDS011;53462;39.616;8.824;2024-01-30T08:52:13;4.40;;;2.30;;
66607;SDS011;53462;39.616;8.824;2024-01-30T08:54:39;8.13;;;3.78;;
66607;SDS011;53462;39.616;8.824;2024-01-30T08:57:05;10.10;;;5.45;;
66607;SDS011;53462;39.616;8.824;2024-01-30T08:59:31;10.60;;;6.85;;
66607;SDS011;53462;39.616;8.824;2024-01-30T09:01:57;10.48;;;4.70;;
66607;SDS011;53462;39.616;8.824;2024-01-30T09:04:24;6.07;;;2.15;;
66607;SDS011;53462;39.616;8.824;2024-01-30T09:06:51;4.50;;;2.00;;
66607;SDS011;53462;39.616;8.824;2024-01-30T09:09:17;5.93;;;3.42;;
66607;SDS011;53462;39.616;8.824;2024-01-30T09:11:43;5.05;;;3.30;;
66607;SDS011;53462;39.616;8.824;2024-01-30T09:14:09;4.70;;;2.47;;
66607;SDS011;53462;39.616;8.824;2024-01-30T09:16:35;3.22;;;2.47;;
66607;SDS011;53462;39.616;8.824;2024-01-30T09:19:01;4.78;;;2.60;;
66607;SDS011;53462;39.616;8.824;2024-01-30T09:21:27;5.45;;;2.17;;
66607;SDS011;53462;39.616;8.824;2024-01-30T09:24:01;3.72;;;2.20;;
66607;SDS011;53462;39.616;8.824;2024-01-30T09:26:31;4.18;;;2.28;;
66607;SDS011;53462;39.616;8.824;2024-01-30T09:28:57;4.97;;;1.98;;
66607;SDS011;53462;39.616;8.824;2024-01-30T09:31:23;2.65;;;1.60;;
66607;SDS011;53462;39.616;8.824;2024-01-30T09:33:49;3.08;;;1.98;;
66607;SDS011;53462;39.616;8.824;2024-01-30T09:36:16;5.80;;;3.45;;
66607;SDS011;53462;39.616;8.824;2024-01-30T09:38:44;2.97;;;1.88;;
66607;SDS011;53462;39.616;8.824;2024-01-30T09:41:11;4.75;;;1.77;;
66607;SDS011;53462;39.616;8.824;2024-01-30T09:43:38;5.55;;;1.58;;
66607;SDS011;53462;39.616;8.824;2024-01-30T09:46:08;4.93;;;1.90;;
66607;SDS011;53462;39.616;8.824;2024-01-30T09:48:38;3.45;;;1.67;;
66607;SDS011;53462;39.616;8.824;2024-01-30T09:51:08;9.95;;;4.55;;
66607;SDS011;53462;39.616;8.824;2024-01-30T09:53:35;4.45;;;2.15;;
66607;SDS011;53462;39.616;8.824;2024-01-30T09:56:02;2.60;;;1.92;;
66607;SDS011;53462;39.616;8.824;2024-01-30T09:58:29;4.25;;;2.35;;
66607;SDS011;53462;39.616;8.824;2024-01-30T10:00:55;3.97;;;2.13;;
66607;SDS011;53462;39.616;8.824;2024-01-30T10:03:21;5.38;;;2.53;;
66607;SDS011;53462;39.616;8.824;2024-01-30T10:05:50;3.72;;;2.20;;
66607;SDS011;53462;39.616;8.824;2024-01-30T10:08:20;4.13;;;2.00;;
66607;SDS011;53462;39.616;8.824;2024-01-30T10:10:49;3.65;;;2.17;;
66607;SDS011;53462;39.616;8.824;2024-01-30T10:13:16;5.25;;;2.00;;
66607;SDS011;53462;39.616;8.824;2024-01-30T10:15:42;3.03;;;1.80;;
66607;SDS011;53462;39.616;8.824;2024-01-30T10:18:08;3.55;;;2.33;;
66607;SDS011;53462;39.616;8.824;2024-01-30T10:20:35;6.50;;;2.80;;
66607;SDS011;53462;39.616;8.824;2024-01-30T10:23:01;3.50;;;2.33;;
66607;SDS011;53462;39.616;8.824;2024-01-30T10:25:29;4.70;;;2.75;;
66607;SDS011;53462;39.616;8.824;2024-01-30T10:27:57;3.85;;;2.15;;
66607;SDS011;53462;39.616;8.824;2024-01-30T10:30:24;3.35;;;1.90;;
66607;SDS011;53462;39.616;8.824;2024-01-30T10:32:50;3.53;;;2.30;;
66607;SDS011;53462;39.616;8.824;2024-01-30T10:35:16;4.80;;;2.60;;
66607;SDS011;53462;39.616;8.824;2024-01-30T10:37:48;3.20;;;2.30;;
66607;SDS011;53462;39.616;8.824;2024-01-30T10:40:15;5.47;;;2.50;;
66607;SDS011;53462;39.616;8.824;2024-01-30T10:42:42;4.13;;;2.13;;
66607;SDS011;53462;39.616;8.824;2024-01-30T10:45:10;3.42;;;2.10;;
66607;SDS011;53462;39.616;8.824;2024-01-30T10:47:42;3.65;;;2.05;;
66607;SDS011;53462;39.616;8.824;2024-01-30T10:50:12;5.28;;;2.40;;
66607;SDS011;53462;39.616;8.824;2024-01-30T10:52:39;5.32;;;2.33;;
66607;SDS011;53462;39.616;8.824;2024-01-30T10:55:10;5.40;;;2.72;;
66607;SDS011;53462;39.616;8.824;2024-01-30T10:57:37;3.63;;;2.28;;
66607;SDS011;53462;39.616;8.824;2024-01-30T11:00:10;3.78;;;2.20;;
66607;SDS011;53462;39.616;8.824;2024-01-30T11:02:41;3.40;;;2.30;;
66607;SDS011;53462;39.616;8.824;2024-01-30T11:05:10;8.65;;;3.08;;
66607;SDS011;53462;39.616;8.824;2024-01-30T11:07:38;4.78;;;2.78;;
66607;SDS011;53462;39.616;8.824;2024-01-30T11:10:06;5.15;;;2.30;;
66607;SDS011;53462;39.616;8.824;2024-01-30T11:12:38;3.65;;;2.40;;
66607;SDS011;53462;39.616;8.824;2024-01-30T11:15:06;4.13;;;2.50;;
66607;SDS011;53462;39.616;8.824;2024-01-30T11:20:27;4.75;;;2.50;;
66607;SDS011;53462;39.616;8.824;2024-01-30T11:22:58;4.90;;;2.42;;
66607;SDS011;53462;39.616;8.824;2024-01-30T11:25:27;3.92;;;2.40;;
66607;SDS011;53462;39.616;8.824;2024-01-30T11:27:54;3.28;;;2.17;;
66607;SDS011;53462;39.616;8.824;2024-01-30T11:30:21;4.22;;;2.47;;
66607;SDS011;53462;39.616;8.824;2024-01-30T11:32:58;4.80;;;2.30;;
66607;SDS011;53462;39.616;8.824;2024-01-30T11:35:32;3.92;;;2.05;;
66607;SDS011;53462;39.616;8.824;2024-01-30T11:38:00;3.88;;;2.10;;
66607;SDS011;53462;39.616;8.824;2024-01-30T11:40:28;3.22;;;2.10;;
66607;SDS011;53462;39.616;8.824;2024-01-30T11:42:58;4.45;;;2.83;;
66607;SDS011;53462;39.616;8.824;2024-01-30T11:45:28;4.28;;;2.42;;
66607;SDS011;53462;39.616;8.824;2024-01-30T11:47:55;6.38;;;2.72;;
66607;SDS011;53462;39.616;8.824;2024-01-30T11:50:21;4.45;;;3.00;;
66607;SDS011;53462;39.616;8.824;2024-01-30T11:52:47;4.88;;;2.60;;
66607;SDS011;53462;39.616;8.824;2024-01-30T11:55:14;3.80;;;2.90;;
66607;SDS011;53462;39.616;8.824;2024-01-30T11:57:40;4.30;;;2.72;;
66607;SDS011;53462;39.616;8.824;2024-01-30T12:00:13;3.83;;;2.50;;
66607;SDS011;53462;39.616;8.824;2024-01-30T12:05:06;5.18;;;2.70;;
66607;SDS011;53462;39.616;8.824;2024-01-30T12:07:33;3.78;;;2.40;;
66607;SDS011;53462;39.616;8.824;2024-01-30T12:09:59;6.82;;;3.90;;
66607;SDS011;53462;39.616;8.824;2024-01-30T12:12:26;4.18;;;3.08;;
66607;SDS011;53462;39.616;8.824;2024-01-30T12:14:52;5.25;;;3.20;;
66607;SDS011;53462;39.616;8.824;2024-01-30T12:20:07;5.35;;;3.42;;
66607;SDS011;53462;39.616;8.824;2024-01-30T12:22:39;5.18;;;3.15;;
66607;SDS011;53462;39.616;8.824;2024-01-30T12:25:13;5.43;;;3.00;;
66607;SDS011;53462;39.616;8.824;2024-01-30T12:27:43;4.22;;;2.80;;
66607;SDS011;53462;39.616;8.824;2024-01-30T12:30:14;4.80;;;2.72;;
66607;SDS011;53462;39.616;8.824;2024-01-30T12:32:47;5.63;;;2.75;;
66607;SDS011;53462;39.616;8.824;2024-01-30T12:35:16;5.97;;;3.22;;
66607;SDS011;53462;39.616;8.824;2024-01-30T12:37:44;6.40;;;3.45;;
66607;SDS011;53462;39.616;8.824;2024-01-30T12:40:13;5.13;;;3.30;;
66607;SDS011;53462;39.616;8.824;2024-01-30T12:42:42;4.82;;;3.10;;
66607;SDS011;53462;39.616;8.824;2024-01-30T12:45:11;5.20;;;2.90;;
66607;SDS011;53462;39.616;8.824;2024-01-30T12:47:39;5.78;;;3.10;;
66607;SDS011;53462;39.616;8.824;2024-01-30T12:50:06;4.50;;;3.00;;
66607;SDS011;53462;39.616;8.824;2024-01-30T12:52:32;8.85;;;3.35;;
66607;SDS011;53462;39.616;8.824;2024-01-30T12:54:58;7.18;;;3.38;;
66607;SDS011;53462;39.616;8.824;2024-01-30T12:57:24;5.82;;;3.13;;
66607;SDS011;53462;39.616;8.824;2024-01-30T12:59:50;6.53;;;3.83;;
66607;SDS011;53462;39.616;8.824;2024-01-30T13:02:16;7.82;;;3.80;;
66607;SDS011;53462;39.616;8.824;2024-01-30T13:04:42;8.38;;;4.10;;
66607;SDS011;53462;39.616;8.824;2024-01-30T13:07:09;8.07;;;3.90;;
66607;SDS011;53462;39.616;8.824;2024-01-30T13:09:35;6.68;;;3.80;;
66607;SDS011;53462;39.616;8.824;2024-01-30T13:12:01;8.90;;;4.15;;
66607;SDS011;53462;39.616;8.824;2024-01-30T13:14:28;7.82;;;3.72;;
66607;SDS011;53462;39.616;8.824;2024-01-30T13:16:54;6.97;;;3.92;;
66607;SDS011;53462;39.616;8.824;2024-01-30T13:19:20;8.48;;;4.70;;
66607;SDS011;53462;39.616;8.824;2024-01-30T13:21:46;6.40;;;4.13;;
66607;SDS011;53462;39.616;8.824;2024-01-30T13:24:13;8.88;;;4.18;;
66607;SDS011;53462;39.616;8.824;2024-01-30T13:26:39;7.70;;;3.83;;
66607;SDS011;53462;39.616;8.824;2024-01-30T13:29:05;8.30;;;4.03;;
66607;SDS011;53462;39.616;8.824;2024-01-30T13:31:31;6.15;;;4.00;;
66607;SDS011;53462;39.616;8.824;2024-01-30T13:33:57;11.50;;;5.15;;
66607;SDS011;53462;39.616;8.824;2024-01-30T13:36:23;9.18;;;4.20;;
66607;SDS011;53462;39.616;8.824;2024-01-30T13:38:49;9.85;;;4.00;;
66607;SDS011;53462;39.616;8.824;2024-01-30T13:41:15;7.15;;;3.50;;
66607;SDS011;53462;39.616;8.824;2024-01-30T13:43:43;5.30;;;3.50;;
66607;SDS011;53462;39.616;8.824;2024-01-30T13:46:09;8.65;;;5.00;;
66607;SDS011;53462;39.616;8.824;2024-01-30T13:48:36;6.72;;;3.92;;
66607;SDS011;53462;39.616;8.824;2024-01-30T13:51:02;6.75;;;3.70;;
66607;SDS011;53462;39.616;8.824;2024-01-30T13:53:28;6.72;;;3.40;;
66607;SDS011;53462;39.616;8.824;2024-01-30T13:55:54;6.20;;;4.05;;
66607;SDS011;53462;39.616;8.824;2024-01-30T13:58:20;5.22;;;3.50;;
66607;SDS011;53462;39.616;8.824;2024-01-30T14:00:46;5.05;;;3.20;;
66607;SDS011;53462;39.616;8.824;2024-01-30T14:03:12;8.38;;;3.38;;
66607;SDS011;53462;39.616;8.824;2024-01-30T14:05:38;8.55;;;3.30;;
66607;SDS011;53462;39.616;8.824;2024-01-30T14:08:05;5.50;;;3.25;;
66607;SDS011;53462;39.616;8.824;2024-01-30T14:10:33;7.47;;;3.22;;
66607;SDS011;53462;39.616;8.824;2024-01-30T14:13:00;5.30;;;3.00;;
66607;SDS011;53462;39.616;8.824;2024-01-30T14:15:26;5.68;;;3.40;;
66607;SDS011;53462;39.616;8.824;2024-01-30T14:17:52;6.30;;;3.35;;
66607;SDS011;53462;39.616;8.824;2024-01-30T14:20:18;6.18;;;3.30;;
66607;SDS011;53462;39.616;8.824;2024-01-30T14:22:44;6.88;;;3.17;;
66607;SDS011;53462;39.616;8.824;2024-01-30T14:25:10;7.03;;;2.80;;
66607;SDS011;53462;39.616;8.824;2024-01-30T14:27:37;4.97;;;3.00;;
66607;SDS011;53462;39.616;8.824;2024-01-30T14:30:03;5.35;;;3.03;;
66607;SDS011;53462;39.616;8.824;2024-01-30T14:32:29;6.32;;;2.83;;
66607;SDS011;53462;39.616;8.824;2024-01-30T14:34:55;5.15;;;3.17;;
66607;SDS011;53462;39.616;8.824;2024-01-30T14:37:21;6.47;;;3.15;;
66607;SDS011;53462;39.616;8.824;2024-01-30T14:39:48;8.88;;;3.05;;
66607;SDS011;53462;39.616;8.824;2024-01-30T14:42:14;6.50;;;2.90;;
66607;SDS011;53462;39.616;8.824;2024-01-30T14:44:41;4.68;;;2.50;;
66607;SDS011;53462;39.616;8.824;2024-01-30T14:47:07;5.07;;;2.85;;
66607;SDS011;53462;39.616;8.824;2024-01-30T14:49:33;5.75;;;2.45;;
66607;SDS011;53462;39.616;8.824;2024-01-30T14:51:59;4.25;;;2.58;;
66607;SDS011;53462;39.616;8.824;2024-01-30T14:54:26;3.95;;;2.75;;